Time;durP1;ratioP1;P1;durP2;ratioP2;P2;SDS_P1;SDS_P2;PMS_P1;PMS_P2;Temp;Humidity;BMP_temperature;BMP_pressure;BME280_temperature;BME280_humidity;BME280_pressure;Samples;Min_cycle;Max_cycle;Signal;HPM_P1;HPM_P2
2021/04/30 00:00:33;;;;;;;10.93;9.80;;;10.50;1.00;;;;;;5024876;28;20304;-61
2021/04/30 00:02:59;;;;;;;10.70;9.70;;;10.40;1.00;;;;;;5026115;28;20203;-61
2021/04/30 00:05:28;;;;;;;11.07;9.97;;;10.30;1.00;;;;;;5023840;28;20429;-61
2021/04/30 00:07:54;;;;;;;10.30;9.30;;;10.30;1.00;;;;;;5025692;28;20186;-61
2021/04/30 00:10:19;;;;;;;10.87;9.63;;;10.20;13.10;;;;;;5027534;28;20801;-60
2021/04/30 00:12:45;;;;;;;10.30;9.30;;;10.20;14.50;;;;;;5028936;28;20212;-60
2021/04/30 00:15:11;;;;;;;10.00;9.10;;;10.10;53.90;;;;;;5030510;28;20205;-60
2021/04/30 00:17:37;;;;;;;10.73;9.63;;;10.10;97.90;;;;;;5028157;28;20653;-62
2021/04/30 00:20:03;;;;;;;11.07;10.00;;;9.90;99.90;;;;;;5032345;28;20427;-61
2021/04/30 00:22:29;;;;;;;11.67;10.57;;;9.90;99.90;;;;;;5029396;28;20194;-61
2021/04/30 00:24:54;;;;;;;32.33;10.80;;;9.90;99.90;;;;;;5028374;28;20429;-61
2021/04/30 00:27:20;;;;;;;11.07;10.07;;;9.80;99.90;;;;;;5026676;28;21004;-61
2021/04/30 00:29:45;;;;;;;10.33;9.33;;;9.70;99.90;;;;;;5028874;28;20550;-61
2021/04/30 00:32:12;;;;;;;11.40;9.97;;;9.60;99.90;;;;;;5027780;28;20242;-59
2021/04/30 00:34:42;;;;;;;12.00;10.90;;;9.50;99.90;;;;;;5028338;28;20649;-59
2021/04/30 00:37:08;;;;;;;11.20;10.00;;;9.50;1.00;;;;;;5028285;28;20476;-67
2021/04/30 00:39:35;;;;;;;11.43;10.23;;;9.50;1.00;;;;;;5028187;28;20523;-60
2021/04/30 00:42:01;;;;;;;11.43;10.23;;;9.40;1.00;;;;;;5028043;28;20798;-60
2021/04/30 00:44:26;;;;;;;11.20;10.10;;;9.40;99.90;;;;;;5028614;28;20430;-60
2021/04/30 00:46:52;;;;;;;12.17;10.97;;;9.30;99.90;;;;;;5027163;28;21172;-59
2021/04/30 00:49:18;;;;;;;10.80;9.73;;;9.30;99.90;;;;;;5027491;28;20669;-60
2021/04/30 00:51:43;;;;;;;12.07;10.77;;;9.30;99.90;;;;;;5027996;28;20186;-60
2021/04/30 00:54:09;;;;;;;12.00;10.80;;;9.20;99.90;;;;;;5028490;28;20240;-60
2021/04/30 00:56:35;;;;;;;11.80;10.60;;;9.10;99.90;;;;;;5029010;28;20272;-61
2021/04/30 00:59:02;;;;;;;12.83;11.53;;;9.10;99.90;;;;;;5032013;28;20190;-61
2021/04/30 01:01:28;;;;;;;11.10;10.00;;;9.00;99.90;;;;;;5029368;28;20580;-61
2021/04/30 01:03:53;;;;;;;13.27;10.83;;;9.00;99.90;;;;;;5030816;28;20436;-61
2021/04/30 01:06:19;;;;;;;12.83;11.43;;;8.90;99.90;;;;;;5029501;28;20445;-60
2021/04/30 01:08:45;;;;;;;13.30;11.90;;;8.90;99.90;;;;;;5031335;28;20224;-61
2021/04/30 01:11:11;;;;;;;13.17;11.73;;;8.80;99.90;;;;;;5031237;28;20428;-61
2021/04/30 01:13:36;;;;;;;12.53;11.23;;;8.80;99.90;;;;;;5032659;28;21385;-60
2021/04/30 01:16:02;;;;;;;12.90;11.60;;;8.70;99.90;;;;;;5043134;28;20513;-61
2021/04/30 01:18:28;;;;;;;13.93;11.63;;;8.70;1.00;;;;;;5030386;28;20193;-59
2021/04/30 01:20:54;;;;;;;13.30;11.90;;;8.70;1.00;;;;;;5030870;28;20551;-60
2021/04/30 01:23:19;;;;;;;13.30;11.93;;;8.60;1.00;;;;;;5031056;28;20890;-61
2021/04/30 01:25:45;;;;;;;13.30;11.57;;;8.70;1.00;;;;;;5031824;28;20292;-61
2021/04/30 01:28:10;;;;;;;12.30;10.60;;;8.60;1.00;;;;;;5029650;28;20192;-61
2021/04/30 01:30:38;;;;;;;13.20;11.57;;;8.60;1.00;;;;;;5031522;28;20282;-61
2021/04/30 01:33:15;;;;;;;12.30;11.00;;;8.50;1.00;;;;;;5029358;28;20280;-62
2021/04/30 01:35:41;;;;;;;13.27;11.87;;;8.50;1.00;;;;;;5018539;28;20470;-61
2021/04/30 01:38:07;;;;;;;13.47;12.03;;;8.50;1.00;;;;;;5030060;28;20447;-61
2021/04/30 01:40:34;;;;;;;13.07;11.67;;;8.50;1.00;;;;;;5031053;28;20189;-61
2021/04/30 01:43:09;;;;;;;14.50;12.10;;;8.40;1.00;;;;;;5045675;28;20225;-60
2021/04/30 01:45:38;;;;;;;14.00;10.90;;;8.30;1.00;;;;;;5045875;28;20777;-60
2021/04/30 01:48:06;;;;;;;13.00;11.60;;;8.30;30.50;;;;;;5029744;28;20964;-59
2021/04/30 01:50:32;;;;;;;15.27;11.97;;;8.30;99.90;;;;;;5031264;28;20514;-62
2021/04/30 01:52:57;;;;;;;13.70;11.30;;;8.20;99.90;;;;;;5030135;28;20474;-60
2021/04/30 01:55:28;;;;;;;13.90;12.17;;;8.20;1.00;;;;;;5031244;28;20657;-60
2021/04/30 01:57:54;;;;;;;14.10;12.60;;;8.20;1.00;;;;;;5029445;28;20676;-60
2021/04/30 02:00:26;;;;;;;14.07;11.67;;;8.10;1.00;;;;;;5030624;28;20439;-60
2021/04/30 02:02:53;;;;;;;12.77;11.40;;;8.10;1.00;;;;;;5029306;28;20471;-60
2021/04/30 02:05:21;;;;;;;14.33;12.63;;;8.10;1.00;;;;;;5031121;28;20427;-60
2021/04/30 02:07:47;;;;;;;15.18;12.20;;;8.00;1.00;;;;;;5027090;28;20447;-60
2021/04/30 02:10:31;;;;;;;15.67;12.47;;;8.10;1.00;;;;;;5030768;28;20262;-60
2021/04/30 02:12:58;;;;;;;14.65;12.52;;;8.00;35.40;;;;;;5029398;28;20189;-60
2021/04/30 02:15:26;;;;;;;15.20;12.60;;;8.00;1.00;;;;;;5035692;28;20197;-61
2021/04/30 02:17:52;;;;;;;13.30;11.90;;;8.10;1.00;;;;;;5028895;28;20450;-61
2021/04/30 02:20:19;;;;;;;14.77;12.90;;;8.10;1.00;;;;;;5030781;28;21184;-61
2021/04/30 02:22:45;;;;;;;15.77;12.15;;;8.10;1.00;;;;;;5029151;28;20261;-61
2021/04/30 02:25:12;;;;;;;14.97;12.00;;;8.00;1.00;;;;;;5030288;28;20181;-61
2021/04/30 02:27:38;;;;;;;14.70;12.30;;;7.90;1.00;;;;;;5029879;28;20778;-61
2021/04/30 02:30:09;;;;;;;15.13;13.10;;;7.80;1.00;;;;;;5029467;28;20467;-61
2021/04/30 02:32:34;;;;;;;13.93;12.47;;;7.80;1.00;;;;;;5029620;28;20197;-61
2021/04/30 02:35:01;;;;;;;13.43;12.00;;;7.70;15.40;;;;;;5029220;28;20446;-61
2021/04/30 02:37:27;;;;;;;13.88;12.38;;;7.70;1.00;;;;;;5028756;28;20579;-61
2021/04/30 02:39:52;;;;;;;13.70;12.00;;;7.80;1.00;;;;;;5030302;28;20190;-61
2021/04/30 02:42:19;;;;;;;13.77;11.80;;;7.80;1.00;;;;;;5029120;28;20221;-61
2021/04/30 02:44:45;;;;;;;14.23;12.00;;;7.80;1.00;;;;;;5030156;28;20180;-61
2021/04/30 02:47:11;;;;;;;13.83;12.37;;;7.70;1.00;;;;;;5028195;28;20438;-60
2021/04/30 02:49:43;;;;;;;13.52;11.85;;;7.80;1.00;;;;;;5028751;28;20855;-62
2021/04/30 02:52:10;;;;;;;15.40;12.70;;;7.70;1.00;;;;;;5025239;28;20265;-61
2021/04/30 02:54:36;;;;;;;13.60;11.97;;;7.60;1.00;;;;;;5023047;28;20981;-64
2021/04/30 02:57:02;;;;;;;14.10;11.75;;;7.60;1.00;;;;;;5029038;28;21064;-61
2021/04/30 02:59:28;;;;;;;13.70;12.13;;;7.50;1.00;;;;;;5028770;28;20193;-61
2021/04/30 03:01:54;;;;;;;16.58;12.70;;;7.50;99.90;;;;;;5029165;28;20801;-61
2021/04/30 03:04:20;;;;;;;14.02;12.52;;;7.50;99.90;;;;;;5029116;28;20190;-61
2021/04/30 03:06:46;;;;;;;13.50;11.90;;;7.40;1.00;;;;;;5029163;28;20549;-60
2021/04/30 03:09:12;;;;;;;14.90;11.30;;;7.30;1.00;;;;;;5029679;28;20439;-62
2021/04/30 03:11:37;;;;;;;15.47;12.10;;;7.40;1.00;;;;;;5028488;28;20195;-61
2021/04/30 03:14:04;;;;;;;14.87;11.80;;;7.40;1.00;;;;;;5032945;28;20194;-61
2021/04/30 03:16:29;;;;;;;14.15;12.10;;;7.30;1.00;;;;;;5030723;28;20638;-61
2021/04/30 03:18:55;;;;;;;14.30;12.30;;;7.20;99.90;;;;;;5028836;28;20187;-61
2021/04/30 03:21:21;;;;;;;13.40;11.73;;;7.20;1.00;;;;;;5029358;28;20212;-61
2021/04/30 03:23:46;;;;;;;15.10;12.03;;;7.10;1.00;;;;;;5029021;28;20199;-61
2021/04/30 03:26:12;;;;;;;15.73;12.53;;;7.20;1.00;;;;;;5028708;28;20179;-61
2021/04/30 03:28:38;;;;;;;16.40;12.80;;;7.10;1.00;;;;;;5028930;28;20201;-61
2021/04/30 03:31:03;;;;;;;14.48;12.27;;;7.00;1.00;;;;;;5029141;28;20235;-61
2021/04/30 03:33:29;;;;;;;13.47;11.57;;;6.90;99.90;;;;;;5026421;28;20638;-61
2021/04/30 03:35:54;;;;;;;16.23;12.90;;;6.90;99.90;;;;;;5028555;28;20189;-61
2021/04/30 03:38:20;;;;;;;18.43;14.40;;;6.90;99.90;;;;;;5040162;28;20198;-61
2021/04/30 03:40:46;;;;;;;14.90;12.97;;;7.00;2.30;;;;;;5029187;28;20184;-61
2021/04/30 03:43:11;;;;;;;13.27;11.87;;;6.90;1.00;;;;;;5026117;28;20224;-61
2021/04/30 03:45:37;;;;;;;13.87;11.93;;;6.90;26.60;;;;;;5027150;28;20640;-61
2021/04/30 03:48:02;;;;;;;14.00;12.03;;;6.80;99.90;;;;;;5027726;28;20187;-61
2021/04/30 03:50:28;;;;;;;13.57;11.70;;;6.90;1.00;;;;;;5023118;28;20216;-58
2021/04/30 03:52:53;;;;;;;16.43;11.90;;;6.90;1.00;;;;;;5027244;28;20195;-61
2021/04/30 03:55:19;;;;;;;12.97;11.53;;;6.90;99.90;;;;;;5025496;28;20930;-61
2021/04/30 03:57:45;;;;;;;15.10;12.30;;;6.90;99.90;;;;;;5027997;28;20183;-61
2021/04/30 04:00:10;;;;;;;15.27;12.10;;;7.00;1.00;;;;;;5027643;28;20259;-60
2021/04/30 04:02:36;;;;;;;16.03;12.90;;;7.00;1.00;;;;;;5028871;28;20347;-59
2021/04/30 04:05:02;;;;;;;15.63;12.50;;;7.00;1.00;;;;;;5021351;28;20545;-62
2021/04/30 04:07:27;;;;;;;14.60;12.30;;;6.90;99.90;;;;;;5028007;28;20331;-61
2021/04/30 04:09:53;;;;;;;12.97;11.60;;;6.90;99.90;;;;;;5027590;28;20287;-61
2021/04/30 04:12:18;;;;;;;16.30;12.50;;;6.90;1.00;;;;;;5026472;28;20191;-61
2021/04/30 04:14:44;;;;;;;15.20;12.47;;;6.90;1.00;;;;;;5029707;28;20678;-61
2021/04/30 04:17:09;;;;;;;14.40;11.73;;;6.90;1.00;;;;;;5026132;28;20190;-61
2021/04/30 04:19:35;;;;;;;13.07;10.53;;;7.00;1.00;;;;;;5028325;28;20188;-60
2021/04/30 04:22:01;;;;;;;16.77;12.43;;;7.00;1.00;;;;;;5025581;28;20208;-61
2021/04/30 04:24:26;;;;;;;14.00;11.70;;;7.10;1.00;;;;;;5027326;28;20176;-61
2021/04/30 04:26:52;;;;;;;15.50;12.80;;;7.20;1.00;;;;;;5028162;28;20639;-61
2021/04/30 04:29:17;;;;;;;14.80;11.90;;;7.20;99.90;;;;;;5028998;28;20249;-61
2021/04/30 04:31:43;;;;;;;15.13;12.10;;;7.30;1.00;;;;;;5028370;28;20308;-61
2021/04/30 04:34:10;;;;;;;14.80;12.53;;;7.50;99.90;;;;;;5030602;28;20205;-60
2021/04/30 04:36:35;;;;;;;15.93;12.80;;;7.60;99.90;;;;;;5023632;28;20192;-60
2021/04/30 04:39:01;;;;;;;13.20;11.23;;;7.60;20.10;;;;;;5030249;28;20196;-62
2021/04/30 04:41:27;;;;;;;14.13;12.20;;;7.70;10.40;;;;;;5031320;28;20636;-61
2021/04/30 04:43:52;;;;;;;14.40;12.03;;;7.70;1.00;;;;;;5031903;28;20188;-61
2021/04/30 04:46:18;;;;;;;13.60;11.37;;;7.80;1.00;;;;;;5019055;28;20427;-61
2021/04/30 04:48:43;;;;;;;13.93;11.90;;;7.80;1.00;;;;;;5031315;28;20267;-60
2021/04/30 04:51:09;;;;;;;15.50;13.00;;;7.90;99.90;;;;;;5030121;28;20194;-62
2021/04/30 04:53:34;;;;;;;14.70;12.20;;;7.90;99.90;;;;;;5030231;28;20648;-60
2021/04/30 04:56:00;;;;;;;16.90;12.83;;;8.00;99.90;;;;;;5032443;28;20185;-61
2021/04/30 04:58:25;;;;;;;15.83;13.87;;;8.10;99.90;;;;;;5031251;28;20189;-61
2021/04/30 05:00:51;;;;;;;14.73;12.13;;;8.20;31.50;;;;;;5031378;28;20207;-62
2021/04/30 05:03:17;;;;;;;14.40;11.73;;;8.20;99.90;;;;;;5032092;28;20201;-62
2021/04/30 05:05:42;;;;;;;14.57;12.00;;;8.30;10.60;;;;;;5031434;28;20594;-61
2021/04/30 05:08:07;;;;;;;14.13;11.97;;;8.30;1.00;;;;;;5030524;28;20237;-61
2021/04/30 05:10:33;;;;;;;16.70;13.57;;;8.50;1.00;;;;;;5045008;28;20193;-61
2021/04/30 05:13:00;;;;;;;14.53;12.50;;;8.50;1.00;;;;;;5031214;28;20723;-61
2021/04/30 05:15:25;;;;;;;14.67;12.17;;;8.60;1.00;;;;;;5033351;28;20531;-61
2021/04/30 05:17:51;;;;;;;14.23;12.20;;;8.60;1.00;;;;;;5031289;28;20923;-68
2021/04/30 05:20:17;;;;;;;15.47;12.50;;;8.70;1.00;;;;;;5031703;28;20189;-69
2021/04/30 05:22:43;;;;;;;15.00;13.23;;;8.70;1.00;;;;;;5029634;28;20209;-61
2021/04/30 05:25:11;;;;;;;16.17;13.20;;;8.90;1.00;;;;;;5031689;28;20170;-61
2021/04/30 05:27:40;;;;;;;16.20;13.70;;;9.00;99.90;;;;;;5026347;28;20445;-59
2021/04/30 05:30:07;;;;;;;15.43;13.23;;;9.10;99.90;;;;;;5024763;28;20548;-61
2021/04/30 05:32:32;;;;;;;13.60;12.20;;;9.10;99.90;;;;;;5030386;28;20527;-60
2021/04/30 05:34:59;;;;;;;14.30;12.80;;;9.10;99.90;;;;;;5031442;28;20520;-61
2021/04/30 05:37:25;;;;;;;14.90;13.20;;;9.30;99.90;;;;;;5029508;28;20186;-61
2021/04/30 05:39:51;;;;;;;15.27;13.30;;;9.30;99.90;;;;;;5027579;28;20432;-61
2021/04/30 05:42:16;;;;;;;15.83;13.50;;;9.20;99.90;;;;;;5029462;28;20729;-68
2021/04/30 05:44:42;;;;;;;15.07;12.10;;;9.20;99.90;;;;;;5030922;28;20232;-61
2021/04/30 05:47:08;;;;;;;16.20;13.33;;;9.30;99.90;;;;;;5030563;28;20413;-60
2021/04/30 05:49:33;;;;;;;14.83;13.20;;;9.30;99.90;;;;;;5044253;28;20324;-61
2021/04/30 05:51:59;;;;;;;16.70;13.83;;;9.30;99.90;;;;;;5019324;28;20194;-65
2021/04/30 05:54:25;;;;;;;14.37;12.87;;;9.40;99.90;;;;;;5027087;28;20660;-66
2021/04/30 05:56:51;;;;;;;15.80;12.70;;;9.40;99.90;;;;;;5027350;28;20765;-66
2021/04/30 05:59:16;;;;;;;15.00;13.20;;;9.40;99.90;;;;;;5023420;28;20428;-66
2021/04/30 06:01:42;;;;;;;16.13;13.10;;;9.40;99.90;;;;;;5030575;28;20623;-71
2021/04/30 06:04:07;;;;;;;14.90;12.97;;;9.40;99.90;;;;;;5030494;28;20368;-66
2021/04/30 06:06:33;;;;;;;15.77;12.80;;;9.50;99.90;;;;;;5030542;28;20192;-65
2021/04/30 06:08:58;;;;;;;16.50;14.47;;;9.50;97.30;;;;;;5030134;28;20186;-65
2021/04/30 06:11:24;;;;;;;17.10;14.67;;;9.40;99.90;;;;;;5030425;28;20269;-65
2021/04/30 06:13:50;;;;;;;14.57;13.07;;;9.40;99.90;;;;;;5022849;28;20680;-65
2021/04/30 06:16:15;;;;;;;15.50;13.90;;;9.50;99.90;;;;;;5034421;28;20562;-66
2021/04/30 06:18:41;;;;;;;16.10;14.13;;;9.60;99.90;;;;;;5030177;28;20193;-66
2021/04/30 06:21:06;;;;;;;16.60;14.90;;;9.60;99.90;;;;;;5045717;28;20194;-66
2021/04/30 06:23:32;;;;;;;12.33;9.30;;;9.50;99.90;;;;;;5018202;28;20192;-66
2021/04/30 06:25:57;;;;;;;15.10;13.50;;;9.50;94.90;;;;;;5029063;28;20288;-66
2021/04/30 06:28:23;;;;;;;14.37;12.00;;;9.40;99.90;;;;;;5030201;28;20513;-66
2021/04/30 06:30:50;;;;;;;13.43;12.03;;;9.40;99.90;;;;;;5030215;28;20334;-65
2021/04/30 06:33:16;;;;;;;16.13;12.20;;;9.40;99.90;;;;;;5030205;28;20193;-66
2021/04/30 06:35:41;;;;;;;15.40;13.20;;;9.40;99.90;;;;;;5027026;28;20444;-66
2021/04/30 06:38:07;;;;;;;14.87;12.43;;;9.50;99.90;;;;;;5025235;28;20198;-65
2021/04/30 06:40:33;;;;;;;14.30;12.10;;;9.50;99.90;;;;;;5027730;28;20194;-63
2021/04/30 06:42:58;;;;;;;14.07;12.63;;;9.40;99.90;;;;;;5020877;28;20241;-62
2021/04/30 06:45:24;;;;;;;15.43;13.30;;;9.50;99.90;;;;;;5015825;28;20425;-67
2021/04/30 06:47:50;;;;;;;15.73;13.03;;;9.50;99.90;;;;;;5016908;28;20502;-64
2021/04/30 06:50:15;;;;;;;14.67;13.17;;;9.70;99.90;;;;;;5016095;28;20201;-64
2021/04/30 06:52:41;;;;;;;14.97;13.30;;;9.70;99.90;;;;;;5013281;28;20992;-65
2021/04/30 06:55:08;;;;;;;17.27;13.40;;;9.80;99.90;;;;;;5012522;28;20630;-61
2021/04/30 06:57:33;;;;;;;11.37;9.97;;;9.90;99.90;;;;;;5026294;28;20268;-62
2021/04/30 06:59:59;;;;;;;13.93;12.40;;;10.00;63.70;;;;;;5029027;28;20475;-60
2021/04/30 07:02:25;;;;;;;14.50;12.40;;;10.00;28.50;;;;;;5028754;28;20289;-60
2021/04/30 07:04:50;;;;;;;13.20;11.80;;;10.10;14.40;;;;;;5029237;28;20429;-60
2021/04/30 07:07:16;;;;;;;16.23;13.17;;;10.30;1.00;;;;;;5029304;28;20206;-61
2021/04/30 07:09:41;;;;;;;13.77;12.37;;;10.40;8.60;;;;;;5028990;28;20193;-61
2021/04/30 07:12:08;;;;;;;14.10;12.60;;;10.60;3.40;;;;;;5029037;28;20190;-59
2021/04/30 07:14:34;;;;;;;14.40;12.50;;;10.60;1.00;;;;;;5033201;28;20617;-60
2021/04/30 07:17:01;;;;;;;14.33;12.83;;;10.70;1.00;;;;;;5028665;28;20436;-65
2021/04/30 07:19:27;;;;;;;14.10;12.60;;;10.70;1.00;;;;;;5030667;28;20426;-63
2021/04/30 07:21:53;;;;;;;13.10;11.70;;;10.70;1.00;;;;;;5029376;28;20468;-61
2021/04/30 07:24:18;;;;;;;13.67;12.27;;;10.60;1.00;;;;;;5029171;28;20440;-61
2021/04/30 07:26:44;;;;;;;16.90;13.17;;;10.60;1.00;;;;;;5028968;28;20421;-64
2021/04/30 07:29:10;;;;;;;14.80;13.00;;;10.60;1.00;;;;;;5029088;28;20187;-61
2021/04/30 07:31:36;;;;;;;13.40;11.93;;;10.60;1.00;;;;;;5028446;28;20232;-65
2021/04/30 07:34:02;;;;;;;12.87;11.40;;;10.70;1.00;;;;;;5038206;28;20525;-65
2021/04/30 07:36:27;;;;;;;14.07;12.30;;;10.70;1.00;;;;;;5044128;28;20191;-60
2021/04/30 07:38:54;;;;;;;15.60;13.67;;;10.60;1.00;;;;;;5028511;28;20660;-63
2021/04/30 07:41:20;;;;;;;14.40;12.90;;;10.70;1.00;;;;;;5028270;28;20635;-60
2021/04/30 07:43:46;;;;;;;12.83;11.57;;;10.90;1.00;;;;;;5028572;28;20556;-63
2021/04/30 07:46:11;;;;;;;11.90;10.80;;;11.00;1.00;;;;;;5023422;28;20179;-63
2021/04/30 07:48:38;;;;;;;10.73;9.73;;;11.00;1.00;;;;;;5027728;28;20424;-64
2021/04/30 07:51:04;;;;;;;12.00;10.70;;;11.00;1.00;;;;;;5023266;28;20171;-60
2021/04/30 07:53:31;;;;;;;13.20;11.90;;;10.90;1.00;;;;;;5027837;28;21340;-64
2021/04/30 07:55:57;;;;;;;13.53;12.13;;;10.90;1.00;;;;;;5025396;28;20202;-59
2021/04/30 07:58:26;;;;;;;14.43;12.30;;;10.90;1.00;;;;;;5027569;28;20420;-59
2021/04/30 08:00:55;;;;;;;14.57;13.10;;;11.00;1.00;;;;;;5021087;28;20166;-64
2021/04/30 08:03:23;;;;;;;13.70;12.30;;;11.20;1.00;;;;;;5027381;28;20945;-65
2021/04/30 08:05:49;;;;;;;13.50;12.30;;;11.30;1.00;;;;;;5029264;28;20475;-62
2021/04/30 08:08:15;;;;;;;13.87;12.47;;;11.60;1.00;;;;;;5032558;28;20926;-59
2021/04/30 08:10:41;;;;;;;13.60;12.30;;;11.90;1.00;;;;;;5047616;28;20464;-59
2021/04/30 08:13:06;;;;;;;13.53;12.23;;;12.10;1.00;;;;;;5031541;28;21390;-60
2021/04/30 08:15:32;;;;;;;13.37;11.97;;;12.00;1.00;;;;;;5032248;28;20210;-61
2021/04/30 08:17:58;;;;;;;14.60;12.40;;;12.10;1.00;;;;;;5031041;28;20183;-59
2021/04/30 08:20:23;;;;;;;15.20;13.60;;;12.20;1.00;;;;;;5031093;28;20202;-59
2021/04/30 08:22:49;;;;;;;15.33;12.83;;;12.40;1.00;;;;;;5027161;28;20810;-60
2021/04/30 08:25:14;;;;;;;13.53;12.23;;;12.60;1.00;;;;;;5030813;28;20202;-60
2021/04/30 08:27:40;;;;;;;17.27;14.50;;;12.90;1.00;;;;;;5032202;28;20542;-61
2021/04/30 08:30:07;;;;;;;15.60;14.00;;;13.00;1.00;;;;;;5031886;28;20229;-60
2021/04/30 08:32:32;;;;;;;16.63;15.03;;;12.90;1.00;;;;;;5031592;28;20456;-60
2021/04/30 08:34:58;;;;;;;15.83;14.20;;;12.80;1.00;;;;;;5031884;28;20428;-61
2021/04/30 08:37:24;;;;;;;15.20;13.53;;;12.60;1.00;;;;;;5031541;28;20179;-60
2021/04/30 08:39:50;;;;;;;18.80;14.03;;;12.60;1.00;;;;;;5028711;28;20617;-61
2021/04/30 08:42:18;;;;;;;15.07;13.57;;;12.60;1.00;;;;;;5031894;28;20511;-61
2021/04/30 08:44:44;;;;;;;14.00;12.70;;;12.90;1.00;;;;;;5030371;28;20831;-61
2021/04/30 08:47:16;;;;;;;15.10;13.70;;;13.10;1.00;;;;;;5031257;28;20895;-61
2021/04/30 08:49:41;;;;;;;15.57;13.93;;;13.10;1.00;;;;;;5045126;28;20520;-61
2021/04/30 08:52:09;;;;;;;14.20;12.90;;;13.00;1.00;;;;;;5027676;28;20501;-61
2021/04/30 08:54:36;;;;;;;14.93;13.43;;;13.10;1.00;;;;;;5037266;28;20210;-62
2021/04/30 08:57:04;;;;;;;15.80;14.20;;;13.20;1.00;;;;;;5030155;28;20779;-61
2021/04/30 08:59:30;;;;;;;16.10;14.60;;;13.40;1.00;;;;;;5030661;28;20491;-61
2021/04/30 09:01:56;;;;;;;15.47;14.07;;;13.20;1.00;;;;;;5030382;28;20523;-60
2021/04/30 09:04:23;;;;;;;15.60;14.00;;;13.20;1.00;;;;;;5028611;28;20440;-61
2021/04/30 09:06:48;;;;;;;15.73;14.20;;;13.40;1.00;;;;;;5028718;28;20734;-60
2021/04/30 09:09:17;;;;;;;14.67;13.27;;;13.40;1.00;;;;;;5029584;28;20418;-61
2021/04/30 09:11:48;;;;;;;15.33;13.80;;;13.70;1.00;;;;;;5026353;28;20183;-61
2021/04/30 09:14:35;;;;;;;15.10;13.50;;;13.80;99.90;;;;;;5029646;28;20419;-61
2021/04/30 09:17:13;;;;;;;14.77;13.47;;;14.00;99.90;;;;;;5022936;28;20778;-61
2021/04/30 09:19:47;;;;;;;15.23;13.73;;;14.00;99.90;;;;;;5026756;28;20473;-62
2021/04/30 09:22:14;;;;;;;16.90;15.20;;;14.00;99.90;;;;;;5029954;28;20541;-62
2021/04/30 09:24:41;;;;;;;15.00;13.57;;;13.90;99.90;;;;;;5045881;28;20866;-61
2021/04/30 09:27:07;;;;;;;16.93;15.20;;;13.80;99.90;;;;;;5026655;28;20957;-61
2021/04/30 09:29:35;;;;;;;17.20;15.50;;;13.70;99.90;;;;;;5028574;28;20978;-61
2021/04/30 09:32:01;;;;;;;16.70;15.20;;;13.70;99.90;;;;;;5031011;28;20435;-61
2021/04/30 09:34:35;;;;;;;16.70;15.10;;;13.60;99.90;;;;;;5029311;28;20449;-62
2021/04/30 09:37:17;;;;;;;15.97;14.57;;;13.70;99.90;;;;;;5030169;28;20505;-62
2021/04/30 09:39:54;;;;;;;16.90;15.30;;;13.70;99.90;;;;;;5027858;28;20430;-62
2021/04/30 09:42:22;;;;;;;15.87;14.47;;;13.60;99.90;;;;;;5027887;28;20474;-62
2021/04/30 09:44:51;;;;;;;16.00;14.50;;;13.70;99.90;;;;;;5028988;28;20435;-60
2021/04/30 09:47:32;;;;;;;15.23;13.73;;;13.80;99.90;;;;;;5028830;28;20419;-61
2021/04/30 09:50:05;;;;;;;15.47;13.97;;;14.00;99.90;;;;;;5028650;28;20415;-61
2021/04/30 09:52:30;;;;;;;14.50;13.20;;;14.90;99.90;;;;;;5028399;28;21161;-60
2021/04/30 09:55:01;;;;;;;13.80;12.60;;;16.20;99.90;;;;;;5030164;28;20431;-59
2021/04/30 09:57:28;;;;;;;16.30;14.80;;;17.40;99.90;;;;;;5031759;28;20241;-60
2021/04/30 09:59:58;;;;;;;14.83;13.63;;;18.60;99.90;;;;;;5030662;28;20443;-59
2021/04/30 10:02:25;;;;;;;14.83;13.33;;;18.50;99.90;;;;;;5029874;28;21046;-59
2021/04/30 10:04:53;;;;;;;15.00;13.60;;;18.80;99.90;;;;;;5030547;28;20425;-59
2021/04/30 10:07:26;;;;;;;14.83;13.43;;;19.50;99.90;;;;;;5029674;28;20824;-60
2021/04/30 10:10:13;;;;;;;14.33;13.10;;;19.40;99.90;;;;;;5026460;28;20417;-60
2021/04/30 10:12:44;;;;;;;15.60;14.30;;;19.20;99.90;;;;;;5020702;28;20451;-58
2021/04/30 10:15:12;;;;;;;14.17;12.97;;;18.90;99.90;;;;;;5030218;28;20437;-60
2021/04/30 10:17:39;;;;;;;15.10;13.80;;;18.40;99.90;;;;;;5029990;28;20752;-60
2021/04/30 10:20:06;;;;;;;15.50;14.20;;;17.90;99.90;;;;;;5020062;28;20791;-60
2021/04/30 10:22:39;;;;;;;15.53;14.13;;;17.80;99.90;;;;;;5024062;28;20477;-60
2021/04/30 10:25:08;;;;;;;13.67;12.50;;;17.50;99.90;;;;;;5029026;28;20479;-60
2021/04/30 10:27:39;;;;;;;14.47;13.17;;;17.50;99.90;;;;;;5016324;28;20437;-59
2021/04/30 10:30:23;;;;;;;14.50;13.30;;;17.60;99.90;;;;;;5029012;28;20803;-59
2021/04/30 10:32:58;;;;;;;13.43;12.33;;;17.40;99.90;;;;;;5029290;28;20985;-59
2021/04/30 10:35:44;;;;;;;15.50;14.20;;;17.10;99.90;;;;;;5028937;28;20428;-59
2021/04/30 10:38:15;;;;;;;14.20;13.10;;;17.00;99.90;;;;;;5029001;28;20948;-60
2021/04/30 10:41:00;;;;;;;14.30;13.10;;;17.50;99.90;;;;;;5029872;28;20436;-60
2021/04/30 10:43:26;;;;;;;13.33;12.23;;;18.00;99.90;;;;;;5029090;28;20996;-60
2021/04/30 10:46:01;;;;;;;13.07;11.97;;;18.20;99.90;;;;;;5029761;28;20394;-60
2021/04/30 10:48:27;;;;;;;14.47;13.23;;;18.40;99.90;;;;;;5029592;28;20441;-60
2021/04/30 10:51:06;;;;;;;15.40;14.07;;;19.10;99.90;;;;;;5029758;28;20923;-59
2021/04/30 10:53:31;;;;;;;17.03;15.30;;;19.00;99.90;;;;;;5021826;28;20460;-63
2021/04/30 10:55:57;;;;;;;16.13;14.73;;;18.10;99.90;;;;;;5027371;28;20437;-62
2021/04/30 10:58:37;;;;;;;16.70;15.10;;;17.40;99.90;;;;;;5027815;28;20672;-61
2021/04/30 11:01:29;;;;;;;14.87;13.67;;;16.70;99.90;;;;;;5028472;28;20515;-63
2021/04/30 11:04:09;;;;;;;16.50;14.90;;;16.50;99.90;;;;;;5028942;28;20445;-63
2021/04/30 11:06:41;;;;;;;15.73;14.37;;;16.10;99.90;;;;;;5043554;28;20434;-62
2021/04/30 11:09:36;;;;;;;15.30;13.90;;;15.80;99.90;;;;;;5028578;28;20439;-63
2021/04/30 11:12:17;;;;;;;15.67;14.27;;;15.60;99.90;;;;;;5012018;28;20950;-62
2021/04/30 11:15:06;;;;;;;16.40;14.83;;;15.00;99.90;;;;;;5026583;28;20937;-59
2021/04/30 11:17:46;;;;;;;16.10;14.70;;;14.70;99.90;;;;;;5026367;28;20416;-62
2021/04/30 11:20:20;;;;;;;15.43;14.13;;;14.80;99.90;;;;;;5021189;28;20426;-64
2021/04/30 11:23:13;;;;;;;15.57;14.17;;;15.00;99.90;;;;;;5019842;28;20453;-67
2021/04/30 11:25:57;;;;;;;14.50;13.20;;;15.10;99.90;;;;;;5027219;28;20500;-60
2021/04/30 11:28:29;;;;;;;15.47;14.07;;;15.50;99.90;;;;;;5019159;28;20506;-65
2021/04/30 11:31:06;;;;;;;15.40;14.00;;;15.90;99.90;;;;;;5016698;28;21140;-57
2021/04/30 11:33:33;;;;;;;16.47;15.07;;;15.90;99.90;;;;;;5017906;28;20443;-60
2021/04/30 11:36:00;;;;;;;17.93;16.23;;;16.10;99.90;;;;;;5024474;28;20442;-64
2021/04/30 11:38:53;;;;;;;17.30;15.90;;;16.30;99.90;;;;;;5023047;28;20450;-63
2021/04/30 11:41:18;;;;;;;17.33;15.80;;;16.20;99.90;;;;;;5019233;28;20496;-61
2021/04/30 11:43:52;;;;;;;17.90;16.30;;;16.30;99.90;;;;;;5023596;28;20416;-63
2021/04/30 11:46:18;;;;;;;17.17;15.77;;;16.20;99.90;;;;;;5024023;28;20198;-60
2021/04/30 11:48:45;;;;;;;16.50;15.10;;;16.00;99.90;;;;;;5023548;28;20436;-60
2021/04/30 11:51:12;;;;;;;16.27;14.87;;;16.00;99.90;;;;;;5025748;28;20442;-61
2021/04/30 11:53:40;;;;;;;17.13;15.63;;;15.80;99.90;;;;;;5026720;28;20441;-59
2021/04/30 11:56:06;;;;;;;18.30;16.60;;;16.10;99.90;;;;;;5025703;28;20781;-60
2021/04/30 11:58:41;;;;;;;17.33;15.73;;;16.10;99.90;;;;;;5026919;28;20430;-60
2021/04/30 12:01:10;;;;;;;18.37;16.57;;;16.30;99.90;;;;;;5025477;28;20431;-61
2021/04/30 12:03:49;;;;;;;18.97;17.10;;;16.40;99.90;;;;;;5026783;28;20455;-62
2021/04/30 12:06:16;;;;;;;16.90;15.40;;;16.60;99.90;;;;;;5026439;28;20439;-62
2021/04/30 12:08:43;;;;;;;17.40;15.90;;;16.60;99.90;;;;;;5026780;28;20490;-61
2021/04/30 12:11:22;;;;;;;17.20;15.63;;;16.70;99.90;;;;;;5026779;28;20413;-65
2021/04/30 12:13:48;;;;;;;17.17;15.67;;;16.90;99.90;;;;;;5028023;28;20420;-64
2021/04/30 12:16:18;;;;;;;18.20;16.60;;;16.90;99.90;;;;;;5026716;28;20526;-63
2021/04/30 12:18:44;;;;;;;18.37;16.87;;;16.90;99.90;;;;;;5026842;28;20900;-62
2021/04/30 12:21:10;;;;;;;18.70;17.10;;;17.10;99.90;;;;;;5026466;28;20424;-61
2021/04/30 12:23:37;;;;;;;18.47;16.97;;;16.90;99.90;;;;;;5026121;28;20840;-63
2021/04/30 12:26:04;;;;;;;19.70;17.90;;;17.00;99.90;;;;;;5026795;28;20442;-64
2021/04/30 12:28:31;;;;;;;20.27;18.50;;;16.90;99.90;;;;;;5027841;28;20417;-67
2021/04/30 12:31:05;;;;;;;19.83;18.03;;;16.90;99.90;;;;;;5027764;28;20461;-64
2021/04/30 12:33:34;;;;;;;19.10;17.40;;;17.00;99.90;;;;;;5025523;28;21258;-65
2021/04/30 12:36:12;;;;;;;18.30;16.70;;;17.30;99.90;;;;;;5026692;28;20423;-64
2021/04/30 12:38:42;;;;;;;16.60;15.20;;;17.50;99.90;;;;;;5026219;28;20401;-66